Oceanic Breeze — 3EDH3 — position and weather

sailwx.info

Track history (hours):
 
Tides and Currents Weather Stations Pressure Air Temp Water Temp Dewpoint Dewpoint Depression Visibility Wind Speed Wind Dir Waves Ship Positions

Oceanic Breeze

Last reported at 2017-Dec-15 11:27 UTC. Time now 2017-Dec-15 21:41 UTC.
Position N 37°58' W 009°53'.

Length 225 m; draft 13.5 m.

Type: Cargo ship. MMSI: 371623000.

Date/timePositionNaut miles runAvg speedWind from/ knotsBaromVisibWave heightAir tempDewpointWater temp
2017-Dec-15 11:27N 37°58' W 009°53'611.7
2017-Dec-15 10:55N 38°04' W 009°55'511.9
2017-Dec-15 10:30N 38°08' W 009°57'611.8
2017-Dec-15 10:00N 38°14' W 009°58'611.6
2017-Dec-15 09:30N 38°20' W 009°60'611.9
2017-Dec-15 09:00N 38°26' W 010°02'611.8
2017-Dec-15 08:30N 38°31' W 010°03'611.7
2017-Dec-15 08:00N 38°37' W 010°05'612.0
2017-Dec-15 07:30N 38°43' W 010°06'612.0
2017-Dec-15 07:00N 38°49' W 010°07'611.7
2017-Dec-15 06:30N 38°55' W 010°07'612.0
2017-Dec-15 06:00N 39°01' W 010°06'612.0
2017-Dec-15 05:30N 39°07' W 010°07'611.9
2017-Dec-15 05:00N 39°13' W 010°07'611.9
2017-Dec-15 04:30N 39°19' W 010°07'612.0
2017-Dec-15 04:00N 39°25' W 010°07'  
2017-Dec-12 07:05N 49°45' W 003°32'410.9
2017-Dec-12 06:46N 49°47' W 003°28'310.8
2017-Dec-12 06:27N 49°49' W 003°23'510.9
2017-Dec-12 06:00N 49°51' W 003°17'810.5
2017-Dec-12 05:16N 49°55' W 003°06'310.2
2017-Dec-12 05:00N 49°56' W 003°02'5 9.9
2017-Dec-12 04:30N 49°58' W 002°55'5 9.7
2017-Dec-12 04:00N 50°00' W 002°48'5 9.3
2017-Dec-12 03:30N 50°01' W 002°41'5 9.2
2017-Dec-12 02:59N 50°03' W 002°34'5810.7
2017-Dec-11 21:32N 50°18' W 001°07'113.3
2017-Dec-11 21:27N 50°19' W 001°05'2612.8
2017-Dec-11 19:25N 50°25' W 000°26'512.1
2017-Dec-11 19:00N 50°27' W 000°18'611.8
2017-Dec-11 18:30N 50°28' W 000°09'611.5
2017-Dec-11 18:00N 50°30' W 000°00'611.2
2017-Dec-11 17:30N 50°31' E 000°08'510.8
2017-Dec-11 17:00N 50°33' E 000°16'510.4
2017-Dec-11 16:30N 50°34' E 000°24'510.2
2017-Dec-11 16:00N 50°36' E 000°32'510.0
2017-Dec-11 15:30N 50°38' E 000°39'510.2
2017-Dec-11 15:00N 50°41' E 000°46'510.7
2017-Dec-11 14:30N 50°44' E 000°53'611.2
2017-Dec-11 14:00N 50°47' E 000°60'611.9
2017-Dec-11 13:30N 50°51' E 001°08'612.5
2017-Dec-11 13:00N 50°54' E 001°16'713.3
2017-Dec-11 12:30N 50°59' E 001°23'713.5
2017-Dec-11 12:00N 51°04' E 001°31'713.2
2017-Dec-11 11:30N 51°08' E 001°38'612.3
2017-Dec-11 11:00N 51°13' E 001°45'611.5
2017-Dec-11 10:30N 51°18' E 001°50'511.0
2017-Dec-11 10:00N 51°23' E 001°53'510.6
2017-Dec-11 09:30N 51°27' E 001°57'510.4
2017-Dec-11 09:00N 51°32' E 002°02'510.3
2017-Dec-11 08:30N 51°35' E 002°08'510.2
2017-Dec-11 08:00N 51°39' E 002°14'510.1
2017-Dec-11 07:29N 51°43' E 002°18'32810.7
2017-Dec-10 00:57N 56°21' E 007°16'510.4
2017-Dec-10 00:29N 56°25' E 007°21'510.1
2017-Dec-09 23:59N 56°29' E 007°26'510.2
2017-Dec-09 23:30N 56°33' E 007°31'510.0
2017-Dec-09 23:00N 56°37' E 007°37'109 8.4
2017-Dec-09 10:00N 57°48' E 010°11'4 8.5
2017-Dec-09 09:30N 57°48' E 010°19'4 8.5
2017-Dec-09 09:00N 57°48' E 010°27'4 8.1
2017-Dec-09 08:30N 57°48' E 010°34'4 7.8
2017-Dec-09 08:00N 57°48' E 010°42'4 7.6
2017-Dec-09 07:30N 57°45' E 010°46'4 8.2
2017-Dec-09 07:00N 57°41' E 010°45'4 7.2
2017-Dec-09 06:30N 57°40' E 010°38'0 0.8
2017-Dec-09 05:56N 57°41' E 010°38'0 0.1
2017-Dec-09 05:29N 57°41' E 010°38'0 0.0
2017-Dec-09 04:11N 57°41' E 010°38'0 0.0
2017-Dec-09 03:59N 57°41' E 010°38'0 0.0
2017-Dec-09 03:29N 57°41' E 010°38'0 0.0
2017-Dec-09 02:59N 57°41' E 010°38'0 0.0
2017-Dec-09 02:26N 57°41' E 010°38'0 0.0
2017-Dec-09 01:59N 57°41' E 010°38'0 0.0
2017-Dec-09 01:26N 57°41' E 010°38'0 0.0
2017-Dec-09 00:59N 57°41' E 010°38'0 0.0
2017-Dec-09 00:29N 57°41' E 010°38'0 0.0
2017-Dec-08 23:59N 57°41' E 010°38'0 0.0
2017-Dec-08 23:26N 57°41' E 010°38'0 0.0
2017-Dec-08 22:53N 57°41' E 010°38'0 0.0
2017-Dec-08 22:29N 57°41' E 010°38'0 0.0
2017-Dec-08 21:56N 57°41' E 010°38'0 0.0
2017-Dec-08 21:26N 57°41' E 010°38'0 0.0
2017-Dec-08 20:50N 57°41' E 010°38'0 0.0
2017-Dec-08 20:29N 57°41' E 010°38'0 0.0
2017-Dec-08 19:53N 57°41' E 010°38'0 0.0
2017-Dec-08 19:29N 57°41' E 010°38'0 0.0
2017-Dec-08 18:56N 57°41' E 010°38'0 0.0
2017-Dec-08 18:29N 57°41' E 010°38'0 0.0
2017-Dec-08 17:59N 57°41' E 010°38'0 0.0
2017-Dec-08 17:26N 57°41' E 010°38'0 0.0
2017-Dec-08 16:50N 57°41' E 010°38'0 0.5
2017-Dec-08 16:30N 57°41' E 010°38'1 2.9
2017-Dec-08 16:00N 57°40' E 010°40'4 7.5
2017-Dec-08 15:30N 57°37' E 010°45'5 9.3
2017-Dec-08 15:00N 57°35' E 010°53'5 9.4
2017-Dec-08 14:30N 57°34' E 011°01'5 9.6
2017-Dec-08 14:00N 57°33' E 011°10'5 9.1
2017-Dec-08 13:30N 57°32' E 011°18'4 8.7
2017-Dec-08 13:00N 57°29' E 011°24'5 9.5
2017-Dec-08 12:30N 57°25' E 011°28'510.4
2017-Dec-08 12:00N 57°20' E 011°31'510.3
2017-Dec-08 11:30N 57°15' E 011°34'5 9.9
2017-Dec-08 11:00N 57°10' E 011°37'5 9.7
2017-Dec-08 10:30N 57°06' E 011°40'5 9.8
2017-Dec-08 10:00N 57°01' E 011°43'99 8.9
2017-Dec-07 22:53N 55°25' E 010°59'710.0
2017-Dec-07 22:12N 55°18' E 011°03'310.7
2017-Dec-07 21:58N 55°16' E 011°04'5 9.6
2017-Dec-07 21:29N 55°11' E 011°05'510.0
2017-Dec-07 21:00N 55°08' E 010°59'510.3
2017-Dec-07 20:30N 55°03' E 010°60'510.1
2017-Dec-07 20:00N 54°58' E 010°57'4 8.2
2017-Dec-07 19:30N 54°55' E 010°52'4 7.5
2017-Dec-07 19:00N 54°51' E 010°50'5 9.9
2017-Dec-07 18:30N 54°46' E 010°49'510.4
2017-Dec-07 18:00N 54°41' E 010°47'5 9.7
2017-Dec-07 17:30N 54°38' E 010°53'510.0
2017-Dec-07 17:00N 54°36' E 011°01'5 9.4
2017-Dec-07 16:30N 54°36' E 011°09'5 9.8
2017-Dec-07 16:00N 54°34' E 011°17'5 9.6
2017-Dec-07 15:30N 54°32' E 011°24'5 9.3
2017-Dec-07 15:00N 54°30' E 011°32'5 9.9
2017-Dec-07 14:30N 54°28' E 011°39'5 9.6
2017-Dec-07 14:00N 54°27' E 011°47'5 9.4
2017-Dec-07 13:30N 54°26' E 011°55'5 9.4
2017-Dec-07 13:00N 54°26' E 012°03'4 8.8
2017-Dec-07 12:30N 54°27' E 012°11'5 9.2
2017-Dec-07 11:59N 54°31' E 012°14'4 8.3
2017-Dec-07 11:30N 54°35' E 012°16'4 7.6
2017-Dec-07 11:00N 54°38' E 012°20'5 9.2
2017-Dec-07 10:30N 54°41' E 012°26'12 9.1
2017-Dec-07 09:13N 54°48' E 012°43'2 9.1
2017-Dec-07 09:00N 54°48' E 012°46'6 9.3
2017-Dec-07 08:22N 54°50' E 012°56'5 9.3
2017-Dec-07 07:50N 54°52' E 013°04'24 9.4
2017-Dec-07 05:14N 55°00' E 013°44'12 9.8
2017-Dec-07 04:02N 55°05' E 014°03'010.3
2017-Dec-07 03:59N 55°05' E 014°03'510.2
2017-Dec-07 03:29N 55°09' E 014°10'510.4
2017-Dec-07 03:00N 55°12' E 014°16'510.5
2017-Dec-07 02:30N 55°16' E 014°22'510.4
2017-Dec-07 02:00N 55°20' E 014°28'510.4
2017-Dec-07 01:30N 55°24' E 014°34'5 9.5
2017-Dec-07 01:00N 55°26' E 014°41'5 9.7
2017-Dec-07 00:30N 55°27' E 014°50'5 9.8
2017-Dec-07 00:00N 55°27' E 014°58'5 9.9
2017-Dec-06 23:30N 55°28' E 015°07'510.1
2017-Dec-06 23:00N 55°28' E 015°16'510.3
2017-Dec-06 22:30N 55°28' E 015°25'610.3
2017-Dec-06 21:56N 55°29' E 015°35'410.1
2017-Dec-06 21:30N 55°29' E 015°43'5 9.9
2017-Dec-06 20:58N 55°30' E 015°52'  
Track history (hours):
 
Tides and Currents Weather Stations Pressure Air Temp Water Temp Dewpoint Dewpoint Depression Visibility Wind Speed Wind Dir Waves Ship Positions

Oceanic Breeze

Last reported at 2017-Dec-15 11:27 UTC. Time now 2017-Dec-15 21:41 UTC.
Position N 37°58' W 009°53'.

Length 225 m; draft 13.5 m.

Type: Cargo ship. MMSI: 371623000.

Date/timePositionNaut miles runAvg speedWind from/ knotsBaromVisibWave heightAir tempDewpointWater temp
2017-Dec-15 11:27N 37°58' W 009°53'611.7
2017-Dec-15 10:55N 38°04' W 009°55'511.9
2017-Dec-15 10:30N 38°08' W 009°57'611.8
2017-Dec-15 10:00N 38°14' W 009°58'611.6
2017-Dec-15 09:30N 38°20' W 009°60'611.9
2017-Dec-15 09:00N 38°26' W 010°02'611.8
2017-Dec-15 08:30N 38°31' W 010°03'611.7
2017-Dec-15 08:00N 38°37' W 010°05'612.0
2017-Dec-15 07:30N 38°43' W 010°06'612.0
2017-Dec-15 07:00N 38°49' W 010°07'611.7
2017-Dec-15 06:30N 38°55' W 010°07'612.0
2017-Dec-15 06:00N 39°01' W 010°06'612.0
2017-Dec-15 05:30N 39°07' W 010°07'611.9
2017-Dec-15 05:00N 39°13' W 010°07'611.9
2017-Dec-15 04:30N 39°19' W 010°07'612.0
2017-Dec-15 04:00N 39°25' W 010°07'  
2017-Dec-12 07:05N 49°45' W 003°32'410.9
2017-Dec-12 06:46N 49°47' W 003°28'310.8
2017-Dec-12 06:27N 49°49' W 003°23'510.9
2017-Dec-12 06:00N 49°51' W 003°17'810.5
2017-Dec-12 05:16N 49°55' W 003°06'310.2
2017-Dec-12 05:00N 49°56' W 003°02'5 9.9
2017-Dec-12 04:30N 49°58' W 002°55'5 9.7
2017-Dec-12 04:00N 50°00' W 002°48'5 9.3
2017-Dec-12 03:30N 50°01' W 002°41'5 9.2
2017-Dec-12 02:59N 50°03' W 002°34'5810.7
2017-Dec-11 21:32N 50°18' W 001°07'113.3
2017-Dec-11 21:27N 50°19' W 001°05'2612.8
2017-Dec-11 19:25N 50°25' W 000°26'512.1
2017-Dec-11 19:00N 50°27' W 000°18'611.8
2017-Dec-11 18:30N 50°28' W 000°09'611.5
2017-Dec-11 18:00N 50°30' W 000°00'611.2
2017-Dec-11 17:30N 50°31' E 000°08'510.8
2017-Dec-11 17:00N 50°33' E 000°16'510.4
2017-Dec-11 16:30N 50°34' E 000°24'510.2
2017-Dec-11 16:00N 50°36' E 000°32'510.0
2017-Dec-11 15:30N 50°38' E 000°39'510.2
2017-Dec-11 15:00N 50°41' E 000°46'510.7
2017-Dec-11 14:30N 50°44' E 000°53'611.2
2017-Dec-11 14:00N 50°47' E 000°60'611.9
2017-Dec-11 13:30N 50°51' E 001°08'612.5
2017-Dec-11 13:00N 50°54' E 001°16'713.3
2017-Dec-11 12:30N 50°59' E 001°23'713.5
2017-Dec-11 12:00N 51°04' E 001°31'713.2
2017-Dec-11 11:30N 51°08' E 001°38'612.3
2017-Dec-11 11:00N 51°13' E 001°45'611.5
2017-Dec-11 10:30N 51°18' E 001°50'511.0
2017-Dec-11 10:00N 51°23' E 001°53'510.6
2017-Dec-11 09:30N 51°27' E 001°57'510.4
2017-Dec-11 09:00N 51°32' E 002°02'510.3
2017-Dec-11 08:30N 51°35' E 002°08'510.2
2017-Dec-11 08:00N 51°39' E 002°14'510.1
2017-Dec-11 07:29N 51°43' E 002°18'32810.7
2017-Dec-10 00:57N 56°21' E 007°16'510.4
2017-Dec-10 00:29N 56°25' E 007°21'510.1
2017-Dec-09 23:59N 56°29' E 007°26'510.2
2017-Dec-09 23:30N 56°33' E 007°31'510.0
2017-Dec-09 23:00N 56°37' E 007°37'109 8.4
2017-Dec-09 10:00N 57°48' E 010°11'4 8.5
2017-Dec-09 09:30N 57°48' E 010°19'4 8.5
2017-Dec-09 09:00N 57°48' E 010°27'4 8.1
2017-Dec-09 08:30N 57°48' E 010°34'4 7.8
2017-Dec-09 08:00N 57°48' E 010°42'4 7.6
2017-Dec-09 07:30N 57°45' E 010°46'4 8.2
2017-Dec-09 07:00N 57°41' E 010°45'4 7.2
2017-Dec-09 06:30N 57°40' E 010°38'0 0.8
2017-Dec-09 05:56N 57°41' E 010°38'0 0.1
2017-Dec-09 05:29N 57°41' E 010°38'0 0.0
2017-Dec-09 04:11N 57°41' E 010°38'0 0.0
2017-Dec-09 03:59N 57°41' E 010°38'0 0.0
2017-Dec-09 03:29N 57°41' E 010°38'0 0.0
2017-Dec-09 02:59N 57°41' E 010°38'0 0.0
2017-Dec-09 02:26N 57°41' E 010°38'0 0.0
2017-Dec-09 01:59N 57°41' E 010°38'0 0.0
2017-Dec-09 01:26N 57°41' E 010°38'0 0.0
2017-Dec-09 00:59N 57°41' E 010°38'0 0.0
2017-Dec-09 00:29N 57°41' E 010°38'0 0.0
2017-Dec-08 23:59N 57°41' E 010°38'0 0.0
2017-Dec-08 23:26N 57°41' E 010°38'0 0.0
2017-Dec-08 22:53N 57°41' E 010°38'0 0.0
2017-Dec-08 22:29N 57°41' E 010°38'0 0.0
2017-Dec-08 21:56N 57°41' E 010°38'0 0.0
2017-Dec-08 21:26N 57°41' E 010°38'0 0.0
2017-Dec-08 20:50N 57°41' E 010°38'0 0.0
2017-Dec-08 20:29N 57°41' E 010°38'0 0.0
2017-Dec-08 19:53N 57°41' E 010°38'0 0.0
2017-Dec-08 19:29N 57°41' E 010°38'0 0.0
2017-Dec-08 18:56N 57°41' E 010°38'0 0.0
2017-Dec-08 18:29N 57°41' E 010°38'0 0.0
2017-Dec-08 17:59N 57°41' E 010°38'0 0.0
2017-Dec-08 17:26N 57°41' E 010°38'0 0.0
2017-Dec-08 16:50N 57°41' E 010°38'0 0.5
2017-Dec-08 16:30N 57°41' E 010°38'1 2.9
2017-Dec-08 16:00N 57°40' E 010°40'4 7.5
2017-Dec-08 15:30N 57°37' E 010°45'5 9.3
2017-Dec-08 15:00N 57°35' E 010°53'5 9.4
2017-Dec-08 14:30N 57°34' E 011°01'5 9.6
2017-Dec-08 14:00N 57°33' E 011°10'5 9.1
2017-Dec-08 13:30N 57°32' E 011°18'4 8.7
2017-Dec-08 13:00N 57°29' E 011°24'5 9.5
2017-Dec-08 12:30N 57°25' E 011°28'510.4
2017-Dec-08 12:00N 57°20' E 011°31'510.3
2017-Dec-08 11:30N 57°15' E 011°34'5 9.9
2017-Dec-08 11:00N 57°10' E 011°37'5 9.7
2017-Dec-08 10:30N 57°06' E 011°40'5 9.8
2017-Dec-08 10:00N 57°01' E 011°43'99 8.9
2017-Dec-07 22:53N 55°25' E 010°59'710.0
2017-Dec-07 22:12N 55°18' E 011°03'310.7
2017-Dec-07 21:58N 55°16' E 011°04'5 9.6
2017-Dec-07 21:29N 55°11' E 011°05'510.0
2017-Dec-07 21:00N 55°08' E 010°59'510.3
2017-Dec-07 20:30N 55°03' E 010°60'510.1
2017-Dec-07 20:00N 54°58' E 010°57'4 8.2
2017-Dec-07 19:30N 54°55' E 010°52'4 7.5
2017-Dec-07 19:00N 54°51' E 010°50'5 9.9
2017-Dec-07 18:30N 54°46' E 010°49'510.4
2017-Dec-07 18:00N 54°41' E 010°47'5 9.7
2017-Dec-07 17:30N 54°38' E 010°53'510.0
2017-Dec-07 17:00N 54°36' E 011°01'5 9.4
2017-Dec-07 16:30N 54°36' E 011°09'5 9.8
2017-Dec-07 16:00N 54°34' E 011°17'5 9.6
2017-Dec-07 15:30N 54°32' E 011°24'5 9.3
2017-Dec-07 15:00N 54°30' E 011°32'5 9.9
2017-Dec-07 14:30N 54°28' E 011°39'5 9.6
2017-Dec-07 14:00N 54°27' E 011°47'5 9.4
2017-Dec-07 13:30N 54°26' E 011°55'5 9.4
2017-Dec-07 13:00N 54°26' E 012°03'4 8.8
2017-Dec-07 12:30N 54°27' E 012°11'5 9.2
2017-Dec-07 11:59N 54°31' E 012°14'4 8.3
2017-Dec-07 11:30N 54°35' E 012°16'4 7.6
2017-Dec-07 11:00N 54°38' E 012°20'5 9.2
2017-Dec-07 10:30N 54°41' E 012°26'12 9.1
2017-Dec-07 09:13N 54°48' E 012°43'2 9.1
2017-Dec-07 09:00N 54°48' E 012°46'6 9.3
2017-Dec-07 08:22N 54°50' E 012°56'5 9.3
2017-Dec-07 07:50N 54°52' E 013°04'24 9.4
2017-Dec-07 05:14N 55°00' E 013°44'12 9.8
2017-Dec-07 04:02N 55°05' E 014°03'010.3
2017-Dec-07 03:59N 55°05' E 014°03'510.2
2017-Dec-07 03:29N 55°09' E 014°10'510.4
2017-Dec-07 03:00N 55°12' E 014°16'510.5
2017-Dec-07 02:30N 55°16' E 014°22'510.4
2017-Dec-07 02:00N 55°20' E 014°28'510.4
2017-Dec-07 01:30N 55°24' E 014°34'5 9.5
2017-Dec-07 01:00N 55°26' E 014°41'5 9.7
2017-Dec-07 00:30N 55°27' E 014°50'5 9.8
2017-Dec-07 00:00N 55°27' E 014°58'5 9.9
2017-Dec-06 23:30N 55°28' E 015°07'510.1
2017-Dec-06 23:00N 55°28' E 015°16'510.3
2017-Dec-06 22:30N 55°28' E 015°25'610.3
2017-Dec-06 21:56N 55°29' E 015°35'410.1
2017-Dec-06 21:30N 55°29' E 015°43'5 9.9
2017-Dec-06 20:58N 55°30' E 015°52'  

Dump ship's entire track history